createdAt,value
2022-11-16T00:11:53.853Z,5.12
2022-11-16T00:27:36.169Z,5.08
2022-11-16T00:43:18.851Z,5.03
2022-11-16T00:59:01.952Z,4.9
2022-11-16T01:14:45.027Z,4.85
2022-11-16T01:30:27.356Z,4.85
2022-11-16T01:46:09.538Z,4.83
2022-11-16T02:01:52.116Z,4.78
2022-11-16T02:17:35.087Z,4.78
2022-11-16T02:33:17.740Z,4.73
2022-11-16T02:49:00.557Z,4.71
2022-11-16T03:04:43.427Z,4.66
2022-11-16T03:20:26.543Z,4.67
2022-11-16T03:36:09.192Z,4.73
2022-11-16T03:51:51.614Z,4.73
2022-11-16T04:07:34.108Z,4.87
2022-11-16T04:23:17.013Z,5.01
2022-11-16T04:39:00.112Z,5.09
2022-11-16T04:54:42.558Z,5.27
2022-11-16T05:10:25.071Z,5.34
2022-11-16T05:26:07.450Z,5.45
2022-11-16T05:41:50.414Z,5.53
2022-11-16T05:57:33.253Z,5.62
2022-11-16T06:13:15.819Z,5.7
2022-11-16T06:44:40.824Z,5.81
2022-11-16T07:00:23.551Z,5.92
2022-11-16T07:16:06.456Z,6
2022-11-16T07:31:49.355Z,6.06
2022-11-16T07:47:31.640Z,6.1
2022-11-16T08:03:13.986Z,6.14
2022-11-16T08:18:56.127Z,6.17
2022-11-16T08:34:38.299Z,6.19
2022-11-16T08:50:20.810Z,6.29
2022-11-16T09:06:03.340Z,6.26
2022-11-16T09:21:45.718Z,6.28
2022-11-16T09:37:28.110Z,6.36
2022-11-16T09:53:10.272Z,6.38
2022-11-16T10:08:52.384Z,6.25
2022-11-16T10:24:34.539Z,6.2
2022-11-16T10:40:17.262Z,6.21
2022-11-16T10:56:00.159Z,6.28
2022-11-16T11:11:43.066Z,6.29
2022-11-16T11:27:25.420Z,6.22
2022-11-16T11:43:08.379Z,6.17
2022-11-16T11:58:50.966Z,6.16
2022-11-16T12:14:33.279Z,6.15
2022-11-16T12:30:16.096Z,6.18
2022-11-16T12:45:58.784Z,6.19
2022-11-16T13:01:40.969Z,6.18
2022-11-16T13:17:23.528Z,6.17
2022-11-16T13:33:06.108Z,6.18
2022-11-16T13:48:48.351Z,6.24
2022-11-16T14:04:30.474Z,6.27
2022-11-16T14:20:13.376Z,6.28
2022-11-16T14:35:56.086Z,6.31
2022-11-16T14:51:38.291Z,6.26
2022-11-16T15:07:20.760Z,6.18
2022-11-16T15:23:03.110Z,6.1
2022-11-16T15:38:45.281Z,6.03
2022-11-16T15:39:32.685Z,6.18
2022-11-16T15:55:15.577Z,5.92
2022-11-16T16:10:58.022Z,5.8
2022-11-16T16:26:40.904Z,5.81
2022-11-16T16:42:23.769Z,5.79
2022-11-16T16:58:06.526Z,5.79
2022-11-16T17:13:48.751Z,5.77
2022-11-16T17:29:31.681Z,5.85
2022-11-16T17:45:14.676Z,5.85
2022-11-16T18:00:57.754Z,5.86
2022-11-16T18:16:40.174Z,5.85
2022-11-16T18:32:22.636Z,5.83
2022-11-16T18:48:04.969Z,5.85
2022-11-16T19:03:47.856Z,5.85
2022-11-16T19:19:30.030Z,5.8
2022-11-16T19:35:12.409Z,5.81
2022-11-16T19:50:55.331Z,5.79
2022-11-16T20:06:38.289Z,5.8
2022-11-16T20:22:20.961Z,5.76
2022-11-16T20:38:03.959Z,5.76
2022-11-16T20:53:46.532Z,5.66
2022-11-16T21:09:28.988Z,5.53
2022-11-16T21:25:12.078Z,5.43
2022-11-16T21:40:55.018Z,5.35
2022-11-16T21:56:37.856Z,5.26
2022-11-16T22:12:20.678Z,5.09
2022-11-16T22:28:03.809Z,4.96
2022-11-16T22:43:46.285Z,4.91
2022-11-16T22:59:28.476Z,4.81
2022-11-16T23:15:11.240Z,4.65
2022-11-16T23:30:53.701Z,4.42
2022-11-16T23:46:36.497Z,4.25
